SWA546 KLAX-KSFO
Flight info
| Callsign | SWA546 |
|---|---|
| Flight time | N/A |
| Altitude | 38000 |
| Route | SUMMR2 STOKD DCT SERFR SERFR4 |
| Aircraft | B737/M-SDE2E3FGHIRWXY/LB1 |
Departure
| Time | 2026-04-24 17:07 |
|---|---|
| Airport | Los Angeles International Airport (KLAX) |
Arrival
| Time | N/A |
|---|---|
| Airport | San Francisco International Airport (KSFO) |
| Time | Latitude | Longitude | Altitude | Speed | Heading |
|---|---|---|---|---|---|
| 2026-04-24 16:54 | 33.94792 | -118.40084 | 92 ft | 0 kts | 219° |
| 2026-04-24 17:00 | 33.94828 | -118.40051 | 92 ft | 4 kts | 225° |
| 2026-04-24 17:00 | 33.94838 | -118.40029 | 93 ft | 4 kts | 292° |
| 2026-04-24 17:01 | 33.94803 | -118.40004 | 85 ft | 3 kts | 1° |
| 2026-04-24 17:01 | 33.94798 | -118.40004 | 86 ft | 0 kts | 1° |
| 2026-04-24 17:03 | 33.94838 | -118.40040 | 93 ft | 15 kts | 301° |
| 2026-04-24 17:04 | 33.94907 | -118.40064 | 92 ft | 12 kts | 41° |
| 2026-04-24 17:04 | 33.94950 | -118.39929 | 93 ft | 0 kts | 39° |
| 2026-04-24 17:05 | 33.94976 | -118.39918 | 94 ft | 8 kts | 9° |
| 2026-04-24 17:05 | 33.95018 | -118.39927 | 94 ft | 4 kts | 336° |
| 2026-04-24 17:05 | 33.95037 | -118.39972 | 94 ft | 0 kts | 267° |
| 2026-04-24 17:06 | 33.95028 | -118.40109 | 95 ft | 50 kts | 263° |
| 2026-04-24 17:06 | 33.94808 | -118.42066 | 114 ft | 174 kts | 261° |
| 2026-04-24 17:06 | 33.94632 | -118.43577 | 618 ft | 184 kts | 260° |
| 2026-04-24 17:07 | 33.94520 | -118.44626 | 1005 ft | 198 kts | 261° |
| 2026-04-24 17:07 | 33.94459 | -118.47090 | 1286 ft | 240 kts | 270° |
| 2026-04-24 17:07 | 33.94183 | -118.51594 | 1224 ft | 304 kts | 257° |
| 2026-04-24 17:08 | 33.93585 | -118.56457 | 3591 ft | 276 kts | 268° |
| 2026-04-24 17:08 | 33.93510 | -118.58497 | 5281 ft | 249 kts | 266° |
| 2026-04-24 17:08 | 33.93414 | -118.60294 | 6305 ft | 249 kts | 266° |
| 2026-04-24 17:09 | 33.93140 | -118.64565 | 7853 ft | 267 kts | 265° |
| 2026-04-24 17:09 | 33.92805 | -118.69089 | 9733 ft | 273 kts | 265° |
| 2026-04-24 17:10 | 33.92629 | -118.71385 | 10496 ft | 282 kts | 264° |
| 2026-04-24 17:10 | 33.92087 | -118.78316 | 11562 ft | 322 kts | 264° |
| 2026-04-24 17:11 | 33.91703 | -118.86462 | 13302 ft | 327 kts | 271° |
| 2026-04-24 17:12 | 33.92234 | -119.00192 | 16178 ft | 332 kts | 275° |